Time;durP1;ratioP1;P1;durP2;ratioP2;P2;SDS_P1;SDS_P2;PMS_P1;PMS_P2;Temp;Humidity;BMP_temperature;BMP_pressure;BME280_temperature;BME280_humidity;BME280_pressure;Samples;Min_cycle;Max_cycle;Signal;HPM_P1;HPM_P2
2023/04/04 00:01:08;;;;;;;10.55;4.68;;;;;;;6.49;100.00;91610.44;5089273;28;20047;-72
2023/04/04 00:03:35;;;;;;;8.02;4.00;;;;;;;6.60;100.00;91616.50;5088958;28;20048;-72
2023/04/04 00:06:02;;;;;;;10.77;4.47;;;;;;;6.65;100.00;91601.28;5088501;28;20532;-72
2023/04/04 00:08:30;;;;;;;8.43;3.58;;;;;;;6.68;100.00;91604.16;5089355;28;20093;-72
2023/04/04 00:10:58;;;;;;;9.35;4.75;;;;;;;6.70;100.00;91606.50;5089120;28;20048;-72
2023/04/04 00:13:25;;;;;;;6.05;3.58;;;;;;;6.73;100.00;91603.50;5088682;28;20048;-72
2023/04/04 00:15:52;;;;;;;8.35;3.03;;;;;;;6.71;100.00;91592.75;5088839;28;20044;-72
2023/04/04 00:18:19;;;;;;;7.47;2.45;;;;;;;6.73;100.00;91603.50;5089201;28;20450;-72
2023/04/04 00:20:46;;;;;;;5.18;2.28;;;;;;;6.77;100.00;91611.50;5089066;28;20098;-72
2023/04/04 00:23:12;;;;;;;6.55;3.17;;;;;;;6.84;100.00;91616.47;5088903;28;20040;-72
2023/04/04 00:25:40;;;;;;;6.95;3.53;;;;;;;6.71;100.00;91597.09;5088703;28;20542;-71
2023/04/04 00:28:07;;;;;;;8.18;3.33;;;;;;;6.82;100.00;91611.59;5088741;28;20048;-71
2023/04/04 00:30:35;;;;;;;6.80;3.50;;;;;;;6.81;100.00;91615.91;5088865;28;20051;-71
2023/04/04 00:33:03;;;;;;;7.40;4.05;;;;;;;6.80;100.00;91619.47;5088502;28;20060;-72
2023/04/04 00:35:30;;;;;;;6.13;2.72;;;;;;;6.75;100.00;91618.59;5088867;28;20040;-72
2023/04/04 00:37:56;;;;;;;3.75;2.25;;;;;;;6.76;100.00;91623.47;5088999;28;20040;-71
2023/04/04 00:40:23;;;;;;;4.80;2.30;;;;;;;6.79;100.00;91627.34;5088768;28;20105;-71
2023/04/04 00:42:52;;;;;;;7.40;2.85;;;;;;;6.77;100.00;91627.56;5088677;28;20501;-72
2023/04/04 00:45:19;;;;;;;4.20;2.58;;;;;;;6.75;100.00;91633.91;5077561;28;20059;-72
2023/04/04 00:47:46;;;;;;;5.53;2.70;;;;;;;6.73;100.00;91644.34;5092394;28;20040;-72
2023/04/04 00:50:13;;;;;;;4.13;2.70;;;;;;;6.71;100.00;91661.63;5092591;28;20052;-72
2023/04/04 00:52:40;;;;;;;5.55;3.78;;;;;;;6.68;100.00;91655.19;5092215;28;20493;-72
2023/04/04 00:55:07;;;;;;;8.07;3.15;;;;;;;6.59;100.00;91660.88;5092814;28;20052;-72
2023/04/04 00:57:34;;;;;;;6.15;2.97;;;;;;;6.49;100.00;91667.31;5092490;28;20044;-72
2023/04/04 01:00:05;;;;;;;3.63;1.90;;;;;;;6.36;100.00;91670.88;5092584;28;20464;-72
2023/04/04 01:02:32;;;;;;;3.85;1.70;;;;;;;6.30;100.00;91674.31;5092302;28;20078;-72
2023/04/04 01:05:00;;;;;;;2.90;1.95;;;;;;;6.18;100.00;91669.19;5092577;28;20048;-72
2023/04/04 01:07:27;;;;;;;3.45;2.17;;;;;;;6.15;100.00;91664.53;5092361;28;20055;-72
2023/04/04 01:09:56;;;;;;;3.63;1.83;;;;;;;6.13;100.00;91661.44;5092738;28;20048;-72
2023/04/04 01:12:23;;;;;;;2.47;1.55;;;;;;;6.03;100.00;91669.63;5092199;28;20090;-72
2023/04/04 01:14:50;;;;;;;2.38;1.50;;;;;;;5.84;100.00;91636.53;5091900;28;20048;-72
2023/04/04 01:17:19;;;;;;;2.42;1.50;;;;;;;5.89;100.00;91641.00;5083866;28;20397;-72
2023/04/04 01:19:56;;;;;;;1.67;1.10;;;;;;;5.88;100.00;91644.53;5085723;28;20470;-72
2023/04/04 01:22:23;;;;;;;1.95;0.90;;;;;;;5.79;100.00;91628.78;5071559;28;20493;-72
2023/04/04 01:24:54;;;;;;;2.03;1.08;;;;;;;5.88;100.00;91644.53;5071908;28;20094;-72
2023/04/04 01:27:22;;;;;;;1.17;0.68;;;;;;;5.88;100.00;91632.56;5071839;28;20166;-72
2023/04/04 01:29:50;;;;;;;1.30;0.63;;;;;;;5.87;100.00;91633.56;5083731;28;20382;-72
2023/04/04 01:32:20;;;;;;;1.45;0.70;;;;;;;5.93;100.00;91628.59;5072683;28;20071;-72
2023/04/04 01:34:56;;;;;;;1.67;0.90;;;;;;;5.96;100.00;91625.56;5072099;28;20048;-72
2023/04/04 01:37:27;;;;;;;;;;;;;;;6.04;100.00;91627.06;5072028;28;20095;-72
2023/04/04 01:39:59;;;;;;;2.13;1.33;;;;;;;6.03;100.00;91620.41;5071575;28;19974;-72
2023/04/04 01:42:27;;;;;;;2.80;1.30;;;;;;;6.13;100.00;91621.44;5071522;28;20045;-72
2023/04/04 01:44:55;;;;;;;2.30;1.30;;;;;;;6.17;100.00;91615.88;5071221;28;20413;-72
2023/04/04 01:47:23;;;;;;;1.52;0.82;;;;;;;6.22;100.00;91606.56;5071012;28;20056;-72
2023/04/04 01:49:49;;;;;;;1.50;0.77;;;;;;;6.27;100.00;91600.78;5071119;28;20049;-72
2023/04/04 01:52:17;;;;;;;1.60;0.80;;;;;;;6.28;100.00;91587.84;5071538;28;20409;-72
2023/04/04 01:54:43;;;;;;;1.67;1.00;;;;;;;6.33;100.00;91587.16;5078201;28;20098;-72
2023/04/04 01:57:10;;;;;;;1.98;0.90;;;;;;;6.30;100.00;91587.63;5078704;28;20555;-72
2023/04/04 01:59:38;;;;;;;1.88;0.88;;;;;;;6.34;100.00;91593.03;5081262;28;20059;-72
2023/04/04 02:02:05;;;;;;;2.22;1.42;;;;;;;6.37;100.00;91595.13;5089801;28;20052;-72
2023/04/04 02:04:32;;;;;;;2.45;1.48;;;;;;;6.36;100.00;91594.38;5090810;28;20062;-71
2023/04/04 02:06:59;;;;;;;2.45;1.60;;;;;;;6.39;100.00;91590.59;5091492;28;20050;-72
2023/04/04 02:09:26;;;;;;;2.72;1.80;;;;;;;6.37;100.00;91590.03;5091719;28;20047;-71
2023/04/04 02:11:52;;;;;;;3.42;1.70;;;;;;;6.35;100.00;91585.13;5090736;28;20495;-71
2023/04/04 02:14:19;;;;;;;2.40;1.65;;;;;;;6.36;100.00;91588.47;5090516;28;20044;-71
2023/04/04 02:16:48;;;;;;;1.88;1.10;;;;;;;6.36;100.00;91588.47;5091249;28;20044;-71
2023/04/04 02:19:15;;;;;;;2.00;1.40;;;;;;;6.36;100.00;91588.47;5091013;28;20048;-72
2023/04/04 02:21:42;;;;;;;2.17;1.10;;;;;;;6.34;100.00;91590.50;5090834;28;20428;-71
2023/04/04 02:24:09;;;;;;;2.40;1.45;;;;;;;6.36;100.00;91593.59;5096070;28;20048;-71
2023/04/04 02:26:36;;;;;;;2.30;1.35;;;;;;;6.40;100.00;91600.56;5091149;28;20055;-71
2023/04/04 02:29:02;;;;;;;1.58;0.88;;;;;;;6.31;100.00;91586.59;5090188;28;20093;-71
2023/04/04 02:31:29;;;;;;;1.75;0.80;;;;;;;6.39;100.00;91609.22;5090277;28;20040;-72
2023/04/04 02:33:57;;;;;;;1.83;0.90;;;;;;;6.14;100.00;91596.69;5089662;28;20416;-72
2023/04/04 02:36:27;;;;;;;3.00;1.83;;;;;;;6.04;100.00;91611.75;5070328;28;20110;-71
2023/04/04 02:38:54;;;;;;;9.82;7.85;;;;;;;5.78;100.00;91601.75;5089146;28;20051;-71
2023/04/04 02:41:22;;;;;;;9.27;5.88;;;;;;;5.50;100.00;91600.59;5090306;28;20381;-71
2023/04/04 02:43:48;;;;;;;5.63;4.00;;;;;;;5.47;100.00;91611.22;5074147;28;20055;-71
2023/04/04 02:46:15;;;;;;;31.15;14.75;;;;;;;5.44;100.00;91616.75;5080652;28;20153;-71
2023/04/04 02:48:42;;;;;;;41.85;21.13;;;;;;;5.32;100.00;91609.09;5070097;28;20098;-71
2023/04/04 02:51:10;;;;;;;6.00;3.47;;;;;;;5.31;100.00;91617.69;5089451;28;20044;-71
2023/04/04 02:53:37;;;;;;;4.43;2.95;;;;;;;5.37;100.00;91621.91;5089081;28;20048;-71
2023/04/04 02:56:04;;;;;;;8.38;2.63;;;;;;;5.24;100.00;91605.06;5085442;28;20052;-71
2023/04/04 02:58:31;;;;;;;8.60;3.20;;;;;;;5.48;100.00;91617.88;5070075;28;20113;-71
2023/04/04 03:00:58;;;;;;;5.88;3.30;;;;;;;5.55;100.00;91622.88;5069707;28;20045;-71
2023/04/04 03:03:25;;;;;;;10.73;5.15;;;;;;;5.59;100.00;91618.88;5069879;28;20094;-71
2023/04/04 03:05:52;;;;;;;7.28;2.97;;;;;;;5.55;100.00;91603.25;5069764;28;20475;-71
2023/04/04 03:08:20;;;;;;;6.45;2.50;;;;;;;5.46;100.00;91605.34;5069625;28;20052;-71
2023/04/04 03:10:46;;;;;;;7.63;3.53;;;;;;;5.44;100.00;91620.06;5069941;28;20048;-71
2023/04/04 03:13:13;;;;;;;8.90;4.43;;;;;;;5.38;100.00;91615.84;5069405;28;20131;-71
2023/04/04 03:15:40;;;;;;;30.63;14.23;;;;;;;5.41;100.00;91622.28;5069888;28;20058;-71
2023/04/04 03:18:07;;;;;;;11.18;4.25;;;;;;;5.39;100.00;91621.72;5069363;28;20135;-71
2023/04/04 03:20:34;;;;;;;19.85;7.82;;;;;;;5.46;100.00;91619.88;5069790;28;20049;-71
2023/04/04 03:23:02;;;;;;;9.07;3.58;;;;;;;5.52;100.00;91615.66;5069586;28;20053;-71
2023/04/04 03:25:31;;;;;;;9.75;4.20;;;;;;;5.51;100.00;91621.75;5069544;28;20044;-71
2023/04/04 03:27:57;;;;;;;7.80;3.60;;;;;;;5.63;100.00;91625.09;5069208;28;20076;-71
2023/04/04 03:30:25;;;;;;;45.67;23.05;;;;;;;5.75;100.00;91622.59;5082539;28;20094;-71
2023/04/04 03:32:52;;;;;;;9.07;5.20;;;;;;;5.70;100.00;91617.38;5069427;28;20049;-71
2023/04/04 03:35:18;;;;;;;7.60;3.55;;;;;;;5.69;100.00;91613.28;5069484;28;20064;-71
2023/04/04 03:37:45;;;;;;;10.20;5.15;;;;;;;5.65;100.00;91619.78;5069011;28;20090;-71
2023/04/04 03:40:13;;;;;;;8.88;4.68;;;;;;;5.69;100.00;91615.81;5069420;28;20451;-71
2023/04/04 03:42:41;;;;;;;6.90;3.88;;;;;;;5.71;100.00;91624.00;5069006;28;20123;-71
2023/04/04 03:45:09;;;;;;;9.13;4.18;;;;;;;5.81;100.00;91620.91;5069347;28;20048;-71
2023/04/04 03:47:35;;;;;;;7.82;3.88;;;;;;;5.93;100.00;91631.13;5069296;28;20056;-71
2023/04/04 03:50:02;;;;;;;9.98;4.60;;;;;;;6.03;100.00;91635.69;5069152;28;20052;-71
2023/04/04 03:52:29;;;;;;;12.25;5.65;;;;;;;6.07;100.00;91637.59;5069014;28;20463;-71
2023/04/04 03:54:55;;;;;;;8.15;4.63;;;;;;;6.09;100.00;91634.81;5069204;28;20036;-71
2023/04/04 03:57:22;;;;;;;8.27;4.93;;;;;;;6.16;100.00;91638.06;5068814;28;20052;-71
2023/04/04 03:59:50;;;;;;;9.93;4.72;;;;;;;6.23;100.00;91638.72;5068810;28;20513;-71
2023/04/04 04:02:17;;;;;;;20.20;12.68;;;;;;;6.27;100.00;91644.16;5069193;28;20049;-71
2023/04/04 04:04:43;;;;;;;15.45;9.43;;;;;;;6.26;100.00;91643.34;5068923;28;20053;-71
2023/04/04 04:07:10;;;;;;;18.02;8.75;;;;;;;6.27;100.00;91642.38;5068782;28;20515;-70
2023/04/04 04:09:37;;;;;;;12.93;7.10;;;;;;;6.29;100.00;91639.59;5069144;28;20052;-71
2023/04/04 04:12:04;;;;;;;16.63;8.15;;;;;;;6.32;100.00;91646.81;5068925;28;20090;-71
2023/04/04 04:14:31;;;;;;;16.30;9.88;;;;;;;6.36;100.00;91647.13;5068798;28;20052;-71
2023/04/04 04:16:59;;;;;;;16.70;11.82;;;;;;;6.36;100.00;91645.38;5069116;28;20110;-71
2023/04/04 04:19:25;;;;;;;20.42;12.77;;;;;;;6.40;100.00;91648.25;5069666;28;20045;-71
2023/04/04 04:21:52;;;;;;;18.00;11.55;;;;;;;6.45;100.00;91645.03;5073258;28;20044;-71
2023/04/04 04:24:19;;;;;;;18.95;12.23;;;;;;;6.46;100.00;91647.34;5072672;28;20044;-71
2023/04/04 04:26:45;;;;;;;14.70;8.35;;;;;;;6.50;100.00;91658.69;5072774;28;20052;-71
2023/04/04 04:29:12;;;;;;;18.77;13.25;;;;;;;6.46;100.00;91657.56;5079879;28;20105;-71
2023/04/04 04:31:39;;;;;;;18.58;13.82;;;;;;;6.36;100.00;91658.13;5079183;28;20048;-71
2023/04/04 04:34:08;;;;;;;14.77;8.07;;;;;;;6.33;100.00;91666.22;5072156;28;20504;-71
2023/04/04 04:36:35;;;;;;;8.68;6.20;;;;;;;6.32;100.00;91671.53;5072883;28;20087;-71
2023/04/04 04:39:02;;;;;;;8.07;4.40;;;;;;;6.30;100.00;91676.88;5072364;28;20135;-71
2023/04/04 04:41:29;;;;;;;8.02;5.10;;;;;;;6.32;100.00;91679.97;5073138;28;20109;-71
2023/04/04 04:43:55;;;;;;;6.57;4.50;;;;;;;6.36;100.00;91685.41;5072481;28;20055;-71
2023/04/04 04:46:22;;;;;;;26.13;13.35;;;;;;;6.25;100.00;91680.06;5072439;28;20052;-71
2023/04/04 04:48:49;;;;;;;15.63;9.63;;;;;;;6.32;100.00;91686.81;5072501;28;20045;-71
2023/04/04 04:51:18;;;;;;;15.32;9.85;;;;;;;6.32;100.00;91691.94;5072581;28;20440;-71
2023/04/04 04:53:44;;;;;;;12.90;9.10;;;;;;;6.26;100.00;91691.81;5072256;28;20044;-71
2023/04/04 04:56:11;;;;;;;12.98;7.88;;;;;;;6.14;100.00;91680.81;5072346;28;20550;-71
2023/04/04 04:58:38;;;;;;;13.05;8.27;;;;;;;6.37;100.00;91697.94;5072505;28;20142;-71
2023/04/04 05:01:05;;;;;;;16.50;11.82;;;;;;;6.44;100.00;91708.03;5071947;28;20079;-71
2023/04/04 05:03:32;;;;;;;17.00;11.80;;;;;;;6.42;100.00;91692.16;5072436;28;20139;-71
2023/04/04 05:05:58;;;;;;;17.00;11.48;;;;;;;6.56;100.00;91705.47;5071838;28;20048;-71
2023/04/04 05:08:27;;;;;;;18.17;12.35;;;;;;;6.58;100.00;91705.25;5071988;28;20113;-71
2023/04/04 05:10:53;;;;;;;11.13;8.68;;;;;;;6.59;100.00;91704.25;5071720;28;20127;-71
2023/04/04 05:13:20;;;;;;;13.38;9.55;;;;;;;6.47;100.00;91699.91;5072200;28;20048;-71
2023/04/04 05:15:47;;;;;;;12.70;9.30;;;;;;;6.59;100.00;91706.78;5071986;28;20045;-71
2023/04/04 05:18:14;;;;;;;14.43;9.43;;;;;;;6.60;100.00;91709.13;5071577;28;20515;-71
2023/04/04 05:20:41;;;;;;;13.77;9.98;;;;;;;6.66;100.00;91699.78;5071980;28;20049;-71
2023/04/04 05:23:07;;;;;;;15.98;9.35;;;;;;;6.80;100.00;91715.66;5071932;28;20045;-71
2023/04/04 05:25:36;;;;;;;12.40;7.70;;;;;;;6.88;100.00;91715.34;5082782;28;20048;-71
2023/04/04 05:28:02;;;;;;;9.27;6.68;;;;;;;6.98;100.00;91719.88;5091619;28;20048;-71
2023/04/04 05:30:29;;;;;;;10.40;6.95;;;;;;;7.05;100.00;91722.31;5090830;28;20036;-71
2023/04/04 05:32:56;;;;;;;9.60;6.03;;;;;;;7.12;100.00;91725.50;5091563;28;20051;-71
2023/04/04 05:35:24;;;;;;;9.85;5.40;;;;;;;7.15;100.00;91722.50;5091918;28;20097;-71
2023/04/04 05:37:50;;;;;;;7.78;5.40;;;;;;;7.21;100.00;91723.38;5091834;28;20048;-71
2023/04/04 05:40:18;;;;;;;11.27;6.57;;;;;;;7.27;100.00;91725.03;5091641;28;20427;-71
2023/04/04 05:42:54;;;;;;;13.27;8.70;;;;;;;7.31;100.00;91718.47;5091421;28;20062;-71
2023/04/04 05:45:20;;;;;;;13.65;8.02;;;;;;;7.43;100.00;91726.09;5091765;28;20113;-71
2023/04/04 05:47:47;;;;;;;12.43;7.78;;;;;;;7.46;100.00;91727.44;5091744;28;20051;-71
2023/04/04 05:50:14;;;;;;;9.45;6.47;;;;;;;7.52;100.00;91731.63;5091379;28;20074;-71
2023/04/04 05:52:41;;;;;;;13.35;8.00;;;;;;;7.62;100.00;91733.59;5091585;28;20048;-71
2023/04/04 05:55:08;;;;;;;17.17;9.00;;;;;;;7.71;100.00;91739.91;5091339;28;20051;-71
2023/04/04 05:57:35;;;;;;;11.45;7.45;;;;;;;7.74;100.00;91742.00;5090993;28;20565;-71
2023/04/04 06:00:05;;;;;;;10.27;7.05;;;;;;;7.81;100.00;91744.41;5078103;28;20044;-71
2023/04/04 06:02:32;;;;;;;7.93;4.78;;;;;;;7.71;100.00;91745.03;5077174;28;20126;-71
2023/04/04 06:04:58;;;;;;;14.18;5.55;;;;;;;7.72;100.00;91749.13;5091366;28;20040;-71
2023/04/04 06:07:25;;;;;;;9.30;5.07;;;;;;;7.43;100.00;91733.78;5090525;28;20056;-71
2023/04/04 06:09:52;;;;;;;8.75;5.47;;;;;;;7.22;100.00;91735.13;5091075;28;20098;-71
2023/04/04 06:12:18;;;;;;;10.15;6.90;;;;;;;7.38;100.00;91735.44;5091295;28;20459;-71
2023/04/04 06:14:45;;;;;;;10.57;6.65;;;;;;;7.43;100.00;91731.22;5090856;28;20044;-71
2023/04/04 06:17:13;;;;;;;10.43;7.05;;;;;;;7.63;100.00;91737.69;5088653;28;20105;-71
2023/04/04 06:19:40;;;;;;;10.85;6.90;;;;;;;7.85;100.00;91754.97;5089294;28;20055;-71
2023/04/04 06:22:07;;;;;;;9.65;6.63;;;;;;;7.98;100.00;91747.03;5089701;28;20052;-71
2023/04/04 06:24:33;;;;;;;14.52;7.15;;;;;;;8.03;100.00;91754.00;5091390;28;20468;-71
2023/04/04 06:27:00;;;;;;;19.20;9.30;;;;;;;8.04;100.00;91753.00;5090021;28;20044;-71
2023/04/04 06:29:27;;;;;;;15.25;9.63;;;;;;;8.21;100.00;91750.47;5090845;28;20098;-71
2023/04/04 06:31:54;;;;;;;13.13;8.30;;;;;;;8.26;100.00;91755.66;5089931;28;20052;-71
2023/04/04 06:34:22;;;;;;;12.23;8.25;;;;;;;8.44;100.00;91756.44;5090708;28;20044;-72
2023/04/04 06:36:49;;;;;;;10.70;8.02;;;;;;;8.31;100.00;91760.09;5090338;28;20047;-72
2023/04/04 06:39:15;;;;;;;15.02;10.80;;;;;;;8.10;100.00;91757.19;5090163;28;20496;-71
2023/04/04 06:41:42;;;;;;;13.55;8.38;;;;;;;8.23;100.00;91758.69;5089612;28;20500;-72
2023/04/04 06:44:09;;;;;;;7.53;5.90;;;;;;;8.03;100.00;91761.66;5090714;28;20051;-71
2023/04/04 06:46:38;;;;;;;8.93;5.68;;;;;;;7.86;100.00;91770.06;5089887;28;20048;-71
2023/04/04 06:49:05;;;;;;;6.45;4.30;;;;;;;7.64;100.00;91779.38;5090152;28;20062;-71
2023/04/04 06:51:33;;;;;;;8.55;5.10;;;;;;;7.45;100.00;91785.41;5090131;28;20499;-71
2023/04/04 06:54:00;;;;;;;12.38;6.03;;;;;;;7.21;100.00;91782.13;5090414;28;20048;-71
2023/04/04 06:56:27;;;;;;;12.35;5.00;;;;;;;7.39;100.00;91790.63;5090307;28;20044;-71
2023/04/04 06:58:53;;;;;;;10.63;3.55;;;;;;;7.08;100.00;91793.34;5090054;28;20051;-71
2023/04/04 07:01:20;;;;;;;5.13;3.30;;;;;;;7.05;100.00;91791.25;5089786;28;20044;-71
2023/04/04 07:03:48;;;;;;;7.40;4.00;;;;;;;7.15;100.00;91800.88;5089854;28;20523;-71
2023/04/04 07:06:14;;;;;;;8.00;4.95;;;;;;;6.81;100.00;91788.69;5090060;28;20054;-71
2023/04/04 07:08:42;;;;;;;7.88;4.55;;;;;;;6.97;100.00;91812.78;5090178;28;20052;-71
2023/04/04 07:11:09;;;;;;;10.82;5.38;;;;;;;7.03;100.00;91818.78;5081460;28;20094;-71
2023/04/04 07:13:36;;;;;;;5.82;2.65;;;;;;;6.84;100.00;91831.63;5087905;28;20413;-72
2023/04/04 07:16:03;;;;;;;4.43;2.60;;;;;;;6.62;100.00;91832.16;5089331;28;20040;-71
2023/04/04 07:18:29;;;;;;;6.40;3.10;;;;;;;6.17;100.00;91822.38;5089750;28;20044;-71
2023/04/04 07:20:57;;;;;;;6.63;4.10;;;;;;;6.07;100.00;91835.66;5089792;28;20040;-71
2023/04/04 07:23:24;;;;;;;3.85;2.40;;;;;;;5.88;100.00;91836.44;5089566;28;20074;-71
2023/04/04 07:25:52;;;;;;;4.22;2.42;;;;;;;6.01;100.00;91858.44;5089873;28;20040;-71
2023/04/04 07:28:19;;;;;;;3.08;1.13;;;;;;;5.57;100.00;91866.19;5089777;28;20052;-71
2023/04/04 07:30:45;;;;;;;3.63;1.00;;;;;;;5.45;100.00;91866.09;5089431;28;20071;-71
2023/04/04 07:33:12;;;;;;;2.25;0.98;;;;;;;5.08;100.00;91866.03;5089620;28;20101;-71
2023/04/04 07:35:39;;;;;;;1.98;0.98;;;;;;;5.20;100.00;91876.31;5089744;28;20054;-71
2023/04/04 07:38:05;;;;;;;4.22;2.55;;;;;;;5.21;100.00;91882.97;5089261;28;20496;-71
2023/04/04 07:40:32;;;;;;;2.10;1.30;;;;;;;4.97;100.00;91882.78;5089787;28;20070;-71
2023/04/04 07:43:00;;;;;;;2.15;1.23;;;;;;;4.91;100.00;91894.56;5088986;28;20503;-71
2023/04/04 07:45:27;;;;;;;1.50;1.00;;;;;;;4.88;100.00;91894.19;5076245;28;20124;-71
2023/04/04 07:47:54;;;;;;;1.60;0.98;;;;;;;4.59;100.00;91892.06;5089010;28;20201;-71
2023/04/04 07:50:21;;;;;;;1.58;1.00;;;;;;;4.54;100.00;91894.44;5089422;28;20528;-71
2023/04/04 07:52:51;;;;;;;3.38;1.63;;;;;;;4.52;100.00;91901.47;5089246;28;20516;-71
2023/04/04 07:55:19;;;;;;;2.85;2.28;;;;;;;4.67;100.00;91901.97;5088754;28;20044;-71
2023/04/04 07:57:45;;;;;;;2.20;1.85;;;;;;;4.71;100.00;91906.66;5088855;28;20488;-71
2023/04/04 08:00:16;;;;;;;3.53;1.30;;;;;;;4.67;100.00;91906.25;5089377;28;20449;-71
2023/04/04 08:02:44;;;;;;;2.58;1.33;;;;;;;4.54;100.00;91907.16;5089157;28;20424;-71
2023/04/04 08:05:11;;;;;;;3.00;1.40;;;;;;;4.63;100.00;91912.75;5089355;28;20148;-71
2023/04/04 08:07:37;;;;;;;2.30;1.60;;;;;;;4.74;100.00;91926.56;5088902;28;20101;-72
2023/04/04 08:10:06;;;;;;;1.95;1.40;;;;;;;4.46;100.00;91937.88;5088736;28;20474;-71
2023/04/04 08:12:32;;;;;;;3.40;2.13;;;;;;;4.38;100.00;91933.81;5089121;28;20047;-71
2023/04/04 08:14:59;;;;;;;2.15;1.30;;;;;;;4.37;100.00;91927.16;5089290;28;20093;-71
2023/04/04 08:17:27;;;;;;;4.07;2.30;;;;;;;4.17;100.00;91933.13;5089251;28;20051;-71
2023/04/04 08:19:54;;;;;;;3.05;1.80;;;;;;;4.21;100.00;91941.13;5089280;28;20093;-71
2023/04/04 08:22:21;;;;;;;1.65;1.20;;;;;;;4.16;100.00;91940.97;5088939;28;20488;-71
2023/04/04 08:24:47;;;;;;;3.85;1.30;;;;;;;4.12;100.00;91954.06;5089089;28;20088;-71
2023/04/04 08:27:14;;;;;;;2.53;1.10;;;;;;;4.12;100.00;91958.38;5088834;28;20048;-71
2023/04/04 08:29:41;;;;;;;2.97;0.85;;;;;;;4.14;100.00;91959.75;5088963;28;20515;-71
2023/04/04 08:32:08;;;;;;;1.50;0.90;;;;;;;4.05;100.00;91965.22;5088456;28;20098;-71
2023/04/04 08:34:36;;;;;;;2.95;1.60;;;;;;;3.99;100.00;91969.34;5088865;28;20571;-71
2023/04/04 08:37:03;;;;;;;2.20;1.83;;;;;;;4.13;100.00;91967.56;5088656;28;20048;-71
2023/04/04 08:39:30;;;;;;;1.83;1.10;;;;;;;4.07;100.00;91965.81;5089027;28;20059;-70
2023/04/04 08:42:04;;;;;;;3.63;1.73;;;;;;;3.96;100.00;91985.00;5088922;28;20170;-71
2023/04/04 08:44:32;;;;;;;1.98;1.27;;;;;;;3.92;100.00;91973.66;5089266;28;20087;-71
2023/04/04 08:46:59;;;;;;;3.15;1.30;;;;;;;3.81;100.00;91962.34;5088679;28;20127;-71
2023/04/04 08:49:28;;;;;;;1.55;0.85;;;;;;;3.79;100.00;91959.25;5088701;28;20079;-71
2023/04/04 08:51:57;;;;;;;3.35;1.60;;;;;;;3.85;100.00;91986.38;5088968;28;20099;-71
2023/04/04 08:54:26;;;;;;;1.73;1.00;;;;;;;3.70;100.00;91989.91;5088430;28;20415;-71
2023/04/04 08:56:53;;;;;;;1.92;0.85;;;;;;;3.68;100.00;91996.97;5088426;28;20044;-71
2023/04/04 08:59:21;;;;;;;2.10;1.00;;;;;;;3.59;100.00;91993.84;5088319;28;20101;-71
2023/04/04 09:01:50;;;;;;;2.50;1.60;;;;;;;3.56;100.00;92004.38;5088541;28;20094;-71
2023/04/04 09:04:17;;;;;;;2.20;1.40;;;;;;;3.68;100.00;92002.03;5088705;28;20047;-71
2023/04/04 09:06:45;;;;;;;3.22;1.75;;;;;;;3.84;100.00;92015.31;5091531;28;20101;-71
2023/04/04 09:09:13;;;;;;;2.42;1.40;;;;;;;3.60;100.00;92008.09;5091963;28;20052;-71
2023/04/04 09:11:40;;;;;;;2.70;1.23;;;;;;;3.90;100.00;92021.34;5090501;28;20046;-71
2023/04/04 09:14:07;;;;;;;1.58;1.00;;;;;;;3.70;100.00;92022.19;5076881;28;20447;-71
2023/04/04 09:16:34;;;;;;;2.65;1.20;;;;;;;3.72;100.00;92018.47;5090249;28;20044;-71
2023/04/04 09:19:00;;;;;;;1.60;1.00;;;;;;;3.90;100.00;92016.28;5078992;28;20097;-71
2023/04/04 09:21:28;;;;;;;2.78;1.50;;;;;;;3.92;100.00;92014.31;5091850;28;20047;-71
2023/04/04 09:24:01;;;;;;;2.28;1.50;;;;;;;3.80;100.00;92020.00;5092191;28;20044;-71
2023/04/04 09:26:46;;;;;;;3.10;1.17;;;;;;;3.65;100.00;92014.34;5091745;28;20063;-71
2023/04/04 09:29:13;;;;;;;1.52;0.90;;;;;;;3.59;100.00;92028.59;5091592;28;20060;-71
2023/04/04 09:31:40;;;;;;;2.22;1.10;;;;;;;3.63;100.00;92013.75;5091587;28;20508;-71
2023/04/04 09:34:07;;;;;;;1.80;1.20;;;;;;;3.79;100.00;92030.38;5091755;28;20044;-70
2023/04/04 09:36:34;;;;;;;1.83;1.30;;;;;;;3.71;100.00;92028.81;5091694;28;20048;-70
2023/04/04 09:39:00;;;;;;;2.42;1.30;;;;;;;3.74;100.00;92034.28;5091494;28;20056;-70
2023/04/04 09:41:29;;;;;;;2.10;1.30;;;;;;;3.99;100.00;92030.34;5091365;28;20048;-71
2023/04/04 09:43:57;;;;;;;2.83;1.42;;;;;;;4.02;100.00;92027.38;5091647;28;20526;-71
2023/04/04 09:46:25;;;;;;;1.42;0.90;;;;;;;4.12;100.00;92034.63;5091452;28;20116;-70
2023/04/04 09:48:54;;;;;;;1.40;0.95;;;;;;;3.99;100.00;92032.88;5091663;28;20059;-71
2023/04/04 09:51:21;;;;;;;2.10;1.10;;;;;;;3.76;100.00;92040.91;5091016;28;20051;-71
2023/04/04 09:53:48;;;;;;;2.40;1.38;;;;;;;3.22;100.00;91985.84;5091511;28;20093;-71
2023/04/04 09:56:15;;;;;;;2.10;1.50;;;;;;;3.74;100.00;92031.72;5090982;28;20098;-71
2023/04/04 09:58:46;;;;;;;2.20;1.25;;;;;;;3.83;100.00;92032.31;5090055;28;20537;-70
2023/04/04 10:01:14;;;;;;;2.70;1.67;;;;;;;4.00;100.00;92035.22;5089331;28;20090;-71
2023/04/04 10:03:40;;;;;;;1.90;1.45;;;;;;;3.93;100.00;92038.75;5090083;28;20446;-71
2023/04/04 10:06:09;;;;;;;2.50;1.10;;;;;;;3.78;100.00;92009.25;5091139;28;20109;-71
2023/04/04 10:08:39;;;;;;;2.08;1.38;;;;;;;3.94;100.00;92047.94;5091221;28;20563;-71
2023/04/04 10:11:06;;;;;;;5.93;3.22;;;;;;;4.19;100.00;92039.66;5090671;28;20097;-71
2023/04/04 10:13:35;;;;;;;9.25;4.40;;;;;;;4.45;100.00;92038.03;5090768;28;20044;-72
2023/04/04 10:16:04;;;;;;;3.78;2.65;;;;;;;4.09;100.00;91994.34;5091042;28;20089;-71
2023/04/04 10:18:33;;;;;;;4.72;3.00;;;;;;;4.70;100.00;92042.44;5090963;28;20051;-71
2023/04/04 10:21:02;;;;;;;2.53;1.52;;;;;;;4.40;100.00;92051.38;5091658;28;20463;-71
2023/04/04 10:23:29;;;;;;;2.25;1.40;;;;;;;4.34;100.00;92052.13;5090961;28;20493;-71
2023/04/04 10:25:57;;;;;;;3.85;1.92;;;;;;;3.94;100.00;92020.00;5090547;28;20493;-71
2023/04/04 10:28:25;;;;;;;3.88;1.92;;;;;;;4.36;100.00;92057.81;5090974;28;20132;-71
2023/04/04 10:31:01;;;;;;;4.80;2.72;;;;;;;4.45;100.00;92063.47;5091038;28;20105;-71
2023/04/04 10:33:37;;;;;;;2.37;1.53;;;;;;;4.18;100.00;92055.91;5090280;28;20524;-71
2023/04/04 10:36:08;;;;;;;2.75;1.88;;;;;;;3.95;100.00;92057.91;5090748;28;20285;-71
2023/04/04 10:38:42;;;;;;;2.85;2.08;;;;;;;3.76;100.00;92035.84;5090168;28;20454;-71
2023/04/04 10:41:10;;;;;;;3.15;2.28;;;;;;;3.78;100.00;92066.88;5090496;28;20450;-71
2023/04/04 10:43:41;;;;;;;3.25;2.10;;;;;;;3.76;100.00;92072.19;5090509;28;20047;-70
2023/04/04 10:46:13;;;;;;;3.05;1.85;;;;;;;3.87;100.00;92074.13;5090782;28;20048;-71
2023/04/04 10:48:43;;;;;;;3.97;2.28;;;;;;;3.98;100.00;92082.13;5090359;28;20452;-71
2023/04/04 10:51:10;;;;;;;3.10;2.30;;;;;;;3.96;100.00;92069.63;5090501;28;20044;-71
2023/04/04 10:53:39;;;;;;;4.03;2.95;;;;;;;3.82;100.00;92081.56;5090652;28;20044;-71
2023/04/04 10:56:07;;;;;;;4.38;2.58;;;;;;;3.64;100.00;92079.59;5090148;28;20062;-71
2023/04/04 10:58:39;;;;;;;2.53;1.60;;;;;;;3.77;100.00;92075.50;5090270;28;20081;-71
2023/04/04 11:01:07;;;;;;;3.53;2.22;;;;;;;3.95;100.00;92077.44;5090205;28;20454;-71
2023/04/04 11:04:18;;;;;;;2.40;1.70;;;;;;;4.02;100.00;92090.91;5090395;28;20094;-71
2023/04/04 11:07:10;;;;;;;3.22;1.90;;;;;;;4.05;100.00;92089.72;5089826;28;20480;-71
2023/04/04 11:09:53;;;;;;;3.80;2.65;;;;;;;3.97;100.00;92096.59;5074632;28;20102;-71
2023/04/04 11:12:32;;;;;;;6.00;2.97;;;;;;;3.91;100.00;92092.31;5089965;28;20047;-71
2023/04/04 11:15:09;;;;;;;5.10;4.00;;;;;;;3.73;100.00;92090.34;5076588;28;20044;-71
2023/04/04 11:17:43;;;;;;;5.50;3.97;;;;;;;3.57;100.00;92102.44;5090175;28;20051;-70
2023/04/04 11:20:15;;;;;;;5.38;3.58;;;;;;;3.34;100.00;92111.19;5084718;28;20097;-70
2023/04/04 11:22:42;;;;;;;2.70;1.73;;;;;;;3.23;100.00;92105.91;5074139;28;20570;-71
2023/04/04 11:25:31;;;;;;;3.50;2.33;;;;;;;3.16;100.00;92108.44;5088749;28;20047;-71
2023/04/04 11:27:58;;;;;;;4.30;3.03;;;;;;;3.04;100.00;92096.31;5088056;28;20329;-71
2023/04/04 11:30:27;;;;;;;3.10;2.00;;;;;;;2.93;100.00;92096.84;5089304;28;20048;-70
2023/04/04 11:32:58;;;;;;;6.35;3.45;;;;;;;3.02;100.00;92112.69;5089123;28;20044;-71
2023/04/04 11:35:27;;;;;;;3.05;2.28;;;;;;;2.96;100.00;92108.38;5089482;28;20493;-71